Time;durP1;ratioP1;P1;durP2;ratioP2;P2;SDS_P1;SDS_P2;PMS_P1;PMS_P2;Temp;Humidity;BMP_temperature;BMP_pressure;BME280_temperature;BME280_humidity;BME280_pressure;Samples;Min_cycle;Max_cycle;Signal;HPM_P1;HPM_P2
2023/08/30 00:01:57;;;;;;;7.28;5.45;;;;;;;19.58;68.76;97986.19;4363890;32;33803;-83
2023/08/30 00:04:25;;;;;;;12.57;6.95;;;;;;;19.62;68.56;97993.03;4358930;32;34298;-82
2023/08/30 00:06:52;;;;;;;10.60;8.52;;;;;;;19.50;68.71;97996.16;4373385;32;33847;-83
2023/08/30 00:09:20;;;;;;;11.93;10.70;;;;;;;18.75;72.21;97999.19;4370474;32;34177;-81
2023/08/30 00:11:48;;;;;;;12.27;10.98;;;;;;;18.66;73.21;98003.84;4374431;32;34121;-95
2023/08/30 00:14:15;;;;;;;13.57;12.13;;;;;;;18.60;73.79;98017.25;4352961;32;33431;-83
2023/08/30 00:16:43;;;;;;;13.62;12.23;;;;;;;18.77;73.40;98008.72;4359186;32;32908;-95
2023/08/30 00:19:12;;;;;;;15.07;13.48;;;;;;;18.86;73.17;98018.00;4360938;32;34190;-83
2023/08/30 00:21:42;;;;;;;16.23;14.52;;;;;;;18.69;74.38;98018.66;4378487;32;34216;-81
2023/08/30 00:24:11;;;;;;;17.40;15.50;;;;;;;18.58;75.33;98011.19;4363557;32;33415;-84
2023/08/30 00:26:39;;;;;;;18.30;16.50;;;;;;;18.23;77.28;98013.34;4365210;32;33370;-83
2023/08/30 00:29:07;;;;;;;18.17;16.27;;;;;;;18.01;79.03;98022.03;4354419;32;35423;-84
2023/08/30 00:31:34;;;;;;;17.92;15.00;;;;;;;18.80;75.53;98024.38;4366302;32;34136;-84
2023/08/30 00:34:02;;;;;;;17.67;15.85;;;;;;;18.81;75.57;98026.06;4346081;32;32858;-82
2023/08/30 00:36:30;;;;;;;18.12;16.05;;;;;;;18.95;74.79;98026.41;4345659;32;34592;-82
2023/08/30 00:38:58;;;;;;;20.83;17.90;;;;;;;18.61;76.72;98024.19;4346023;32;33535;-84
2023/08/30 00:41:26;;;;;;;20.33;18.27;;;;;;;18.32;78.06;98030.50;4357454;32;33872;-84
2023/08/30 00:43:54;;;;;;;21.98;17.67;;;;;;;18.46;77.67;98022.16;4358248;32;34692;-84
2023/08/30 00:46:22;;;;;;;19.95;17.23;;;;;;;18.69;76.00;98016.03;4357522;32;33832;-82
2023/08/30 00:49:06;;;;;;;19.58;17.35;;;;;;;18.51;76.91;98027.22;4345823;32;34887;-83
2023/08/30 00:51:34;;;;;;;21.20;19.00;;;;;;;18.82;75.70;98022.53;4345291;32;35051;-83
2023/08/30 00:54:02;;;;;;;20.67;18.48;;;;;;;18.33;78.71;98028.75;4344054;32;34157;-83
2023/08/30 00:56:32;;;;;;;20.75;18.58;;;;;;;18.71;76.50;98029.97;4359542;32;34147;-82
2023/08/30 00:59:00;;;;;;;19.85;17.83;;;;;;;18.44;77.24;98037.94;4353133;32;34229;-84
2023/08/30 01:01:27;;;;;;;21.87;18.60;;;;;;;18.59;76.95;98039.12;4347789;32;34144;-83
2023/08/30 01:03:55;;;;;;;23.90;18.58;;;;;;;18.91;75.22;98030.06;4349563;32;34300;-84
2023/08/30 01:06:22;;;;;;;20.52;18.45;;;;;;;18.90;75.60;98036.25;4333217;33;34670;-84
2023/08/30 01:08:51;;;;;;;22.48;19.35;;;;;;;18.87;75.78;98038.97;4346335;32;33800;-82
2023/08/30 01:11:24;;;;;;;21.87;19.48;;;;;;;18.38;77.48;98038.19;4321434;33;35048;-84
2023/08/30 01:14:22;;;;;;;22.10;19.70;;;;;;;18.40;77.64;98038.94;4332779;33;32612;-83
2023/08/30 01:16:49;;;;;;;22.10;18.62;;;;;;;18.13;78.75;98032.94;4333595;33;34009;-84
2023/08/30 01:19:26;;;;;;;24.02;19.52;;;;;;;18.52;76.90;98029.78;4346270;33;34731;-82
2023/08/30 01:22:04;;;;;;;25.45;20.77;;;;;;;18.27;77.83;98021.97;4346680;32;34611;-83
2023/08/30 01:24:47;;;;;;;25.92;19.70;;;;;;;18.42;76.45;98018.78;4333503;33;33983;-83
2023/08/30 01:27:15;;;;;;;25.35;20.10;;;;;;;18.56;76.87;98009.50;4357887;32;33879;-80
2023/08/30 01:29:44;;;;;;;23.75;20.02;;;;;;;18.42;77.19;98013.53;4376046;32;34895;-83
2023/08/30 01:32:12;;;;;;;25.05;19.40;;;;;;;18.23;78.49;98009.88;4350138;32;33600;-84
2023/08/30 01:34:42;;;;;;;31.77;20.00;;;;;;;18.30;78.03;98021.84;4357677;32;34023;-84
2023/08/30 01:37:09;;;;;;;23.50;17.87;;;;;;;18.39;77.14;98018.87;4347296;32;34115;-83
2023/08/30 01:39:38;;;;;;;24.73;18.77;;;;;;;18.33;77.69;98013.00;4346903;32;34981;-83
2023/08/30 01:42:07;;;;;;;23.05;18.87;;;;;;;18.18;78.20;98017.03;4347833;32;33419;-84
2023/08/30 01:44:37;;;;;;;25.25;18.00;;;;;;;18.19;78.61;98011.75;4360514;32;34656;-84
2023/08/30 01:47:05;;;;;;;22.30;17.37;;;;;;;18.43;77.24;98015.22;4357126;32;85159;-84
2023/08/30 01:49:37;;;;;;;22.52;17.42;;;;;;;18.30;77.67;98019.25;4347853;32;34189;-84
2023/08/30 01:52:06;;;;;;;23.02;16.95;;;;;;;18.18;77.75;98014.41;4360974;32;34987;-83
2023/08/30 01:54:34;;;;;;;20.55;16.55;;;;;;;18.77;74.82;98013.97;4346399;32;33740;-95
2023/08/30 01:57:01;;;;;;;22.65;16.12;;;;;;;18.51;75.48;98017.56;4338280;32;33486;-84
2023/08/30 01:59:29;;;;;;;20.50;16.20;;;;;;;18.44;75.39;98019.56;4345771;32;34158;-85
2023/08/30 02:01:57;;;;;;;22.13;17.60;;;;;;;18.55;75.60;98013.06;4344993;32;34239;-85
2023/08/30 02:04:24;;;;;;;21.23;16.25;;;;;;;18.35;76.59;98009.41;4333472;33;33168;-85
2023/08/30 02:07:00;;;;;;;28.25;17.55;;;;;;;18.55;75.16;98002.56;4355067;32;33798;-84
2023/08/30 02:09:54;;;;;;;22.15;16.62;;;;;;;18.56;75.34;98009.50;4344484;32;34036;-85
2023/08/30 02:12:24;;;;;;;23.23;17.65;;;;;;;18.09;77.66;98012.13;4345991;32;33793;-83
2023/08/30 02:14:53;;;;;;;24.75;17.60;;;;;;;18.42;76.27;98008.28;4336322;32;33669;-85
2023/08/30 02:17:20;;;;;;;23.05;18.02;;;;;;;18.21;77.33;98012.53;4346544;32;33745;-82
2023/08/30 02:19:48;;;;;;;25.62;18.65;;;;;;;18.51;76.06;98021.97;4344892;32;34135;-85
2023/08/30 02:22:17;;;;;;;22.00;16.98;;;;;;;18.45;76.08;98018.66;4341404;33;33977;-85
2023/08/30 02:24:45;;;;;;;23.62;18.52;;;;;;;18.58;75.76;98016.41;4353493;32;34445;-84
2023/08/30 02:27:12;;;;;;;23.52;19.08;;;;;;;18.54;76.39;98032.34;4349307;32;33490;-85
2023/08/30 02:29:40;;;;;;;23.58;19.25;;;;;;;18.69;75.50;98026.53;4332655;33;33685;-83
2023/08/30 02:32:07;;;;;;;24.00;19.42;;;;;;;18.23;77.92;98028.25;4353751;32;35007;-83
2023/08/30 02:34:35;;;;;;;25.25;18.92;;;;;;;18.75;76.33;98028.06;4370124;32;33812;-84
2023/08/30 02:37:03;;;;;;;24.98;19.52;;;;;;;18.78;76.09;98028.81;4351197;32;33183;-84
2023/08/30 02:39:31;;;;;;;22.15;18.95;;;;;;;18.84;75.55;98036.47;4360713;32;33839;-83
2023/08/30 02:41:58;;;;;;;25.25;19.25;;;;;;;18.93;74.65;98036.09;4360856;32;34675;-83
2023/08/30 02:44:26;;;;;;;26.02;20.10;;;;;;;18.64;75.89;98033.72;4344346;33;33567;-83
2023/08/30 02:46:53;;;;;;;22.55;19.42;;;;;;;18.71;75.47;98029.97;4344861;33;33948;-83
2023/08/30 02:49:21;;;;;;;25.02;20.23;;;;;;;18.68;75.97;98028.28;4345808;33;35225;-82
2023/08/30 02:51:48;;;;;;;24.15;19.65;;;;;;;18.62;76.04;98030.28;4345613;33;34116;-83
2023/08/30 02:54:16;;;;;;;25.73;19.35;;;;;;;18.51;76.64;98037.72;4345560;33;34384;-83
2023/08/30 02:56:44;;;;;;;23.08;19.25;;;;;;;18.56;75.88;98035.75;4342226;33;33785;-83
2023/08/30 02:59:12;;;;;;;25.27;19.23;;;;;;;18.50;76.88;98038.62;4338447;33;34018;-83
2023/08/30 03:01:39;;;;;;;23.17;18.77;;;;;;;18.29;77.64;98035.88;4344090;33;34212;-83
2023/08/30 03:04:08;;;;;;;25.20;18.27;;;;;;;18.55;77.27;98039.31;4331550;33;33467;-83
2023/08/30 03:06:35;;;;;;;20.95;17.58;;;;;;;18.60;76.67;98046.12;4330975;33;33685;-83
2023/08/30 03:09:04;;;;;;;20.83;17.87;;;;;;;18.67;75.80;98041.47;4338288;33;35002;-83
2023/08/30 03:11:33;;;;;;;22.23;17.37;;;;;;;18.80;75.06;98034.87;4344862;33;34142;-83
2023/08/30 03:14:01;;;;;;;24.05;18.87;;;;;;;18.78;75.27;98041.09;4343489;33;33765;-83
2023/08/30 03:16:29;;;;;;;23.85;17.48;;;;;;;18.98;74.79;98032.44;4343333;33;34046;-82
2023/08/30 03:18:56;;;;;;;27.35;18.37;;;;;;;18.82;75.42;98033.03;4344685;33;33795;-84
2023/08/30 03:21:24;;;;;;;21.05;17.85;;;;;;;18.76;75.44;98027.19;4344489;33;34148;-84
2023/08/30 03:23:51;;;;;;;23.10;18.62;;;;;;;18.76;75.04;98022.78;4343664;33;34580;-83
2023/08/30 03:26:19;;;;;;;23.98;18.08;;;;;;;18.40;77.07;98031.09;4344462;33;34857;-84
2023/08/30 03:28:46;;;;;;;22.35;17.65;;;;;;;18.15;78.54;98030.28;4343171;33;34206;-83
2023/08/30 03:31:15;;;;;;;26.48;18.50;;;;;;;18.62;76.49;98040.78;4344333;33;34952;-83
2023/08/30 03:33:44;;;;;;;23.17;17.77;;;;;;;18.46;76.59;98038.75;4343741;33;34581;-82
2023/08/30 03:36:15;;;;;;;27.23;18.55;;;;;;;18.05;79.01;98036.75;4341348;33;33690;-83
2023/08/30 03:38:43;;;;;;;24.40;18.30;;;;;;;18.09;79.04;98035.75;4344849;33;33962;-81
2023/08/30 03:41:11;;;;;;;24.90;18.05;;;;;;;18.30;78.27;98034.97;4344261;33;34014;-83
2023/08/30 03:43:39;;;;;;;23.73;17.33;;;;;;;18.22;79.16;98040.50;4346312;32;33784;-81
2023/08/30 03:46:09;;;;;;;24.85;18.25;;;;;;;18.50;77.73;98038.62;4359208;32;32348;-83
2023/08/30 03:48:37;;;;;;;22.62;17.15;;;;;;;18.20;78.65;98044.94;4345923;32;34249;-82
2023/08/30 03:51:05;;;;;;;26.90;17.50;;;;;;;18.30;78.12;98044.63;4358645;32;34612;-83
2023/08/30 03:53:32;;;;;;;22.27;16.05;;;;;;;18.55;77.21;98040.16;4345184;32;34535;-81
2023/08/30 03:56:00;;;;;;;20.90;16.55;;;;;;;18.62;77.10;98032.91;4344866;32;33534;-82
2023/08/30 03:58:28;;;;;;;21.67;16.10;;;;;;;18.41;77.76;98038.06;4344118;32;35124;-83
2023/08/30 04:00:57;;;;;;;19.55;15.48;;;;;;;18.93;75.62;98041.34;4346060;32;34834;-83
2023/08/30 04:03:24;;;;;;;21.05;16.52;;;;;;;18.60;76.73;98042.59;4345702;32;34522;-83
2023/08/30 04:05:56;;;;;;;23.05;16.15;;;;;;;18.70;75.89;98044.88;4358205;32;33088;-83
2023/08/30 04:08:24;;;;;;;22.45;16.62;;;;;;;18.59;76.45;98040.91;4345994;32;33495;-83
2023/08/30 04:10:53;;;;;;;19.55;14.93;;;;;;;18.70;76.04;98050.13;4359437;32;33806;-83
2023/08/30 04:13:20;;;;;;;24.80;16.55;;;;;;;18.46;76.82;98054.47;4344317;32;33661;-83
2023/08/30 04:15:48;;;;;;;25.05;17.85;;;;;;;18.13;79.08;98055.69;4357587;32;33858;-80
2023/08/30 04:18:16;;;;;;;23.55;17.08;;;;;;;18.39;78.45;98049.53;4346214;32;34804;-83
2023/08/30 04:20:47;;;;;;;22.37;17.05;;;;;;;18.10;79.38;98055.81;4359617;32;34300;-83
2023/08/30 04:23:15;;;;;;;21.80;16.85;;;;;;;18.30;78.69;98070.84;4359747;32;33396;-83
2023/08/30 04:25:44;;;;;;;25.05;17.10;;;;;;;18.13;79.48;98071.44;4359695;32;33584;-83
2023/08/30 04:28:12;;;;;;;25.35;16.67;;;;;;;18.24;78.38;98064.03;4336955;32;34836;-83
2023/08/30 04:30:40;;;;;;;22.85;16.77;;;;;;;18.22;79.24;98063.22;4347937;32;35073;-84
2023/08/30 04:33:07;;;;;;;24.12;17.33;;;;;;;18.37;78.54;98067.97;4361637;32;34907;-83
2023/08/30 04:35:35;;;;;;;26.80;18.00;;;;;;;18.59;77.68;98077.66;4361683;32;34618;-83
2023/08/30 04:38:03;;;;;;;23.80;17.67;;;;;;;18.27;78.09;98076.22;4360904;32;34160;-83
2023/08/30 04:40:32;;;;;;;26.98;18.23;;;;;;;18.12;78.85;98077.59;4343460;32;34630;-84
2023/08/30 04:43:00;;;;;;;24.55;16.80;;;;;;;18.27;78.50;98086.69;4361390;32;33676;-83
2023/08/30 04:45:29;;;;;;;23.95;16.58;;;;;;;18.31;77.83;98078.66;4333415;32;33266;-82
2023/08/30 04:47:57;;;;;;;27.45;18.35;;;;;;;18.59;76.38;98081.13;4354810;32;34056;-84
2023/08/30 04:50:25;;;;;;;23.80;16.48;;;;;;;18.33;77.71;98071.56;4357174;32;33546;-84
2023/08/30 04:52:53;;;;;;;26.08;17.90;;;;;;;18.34;77.71;98068.06;4333280;33;33647;-85
2023/08/30 04:55:24;;;;;;;25.00;17.35;;;;;;;18.90;75.41;98073.00;4334588;32;33749;-83
2023/08/30 04:57:52;;;;;;;23.75;16.27;;;;;;;18.58;76.49;98071.53;4341119;32;33857;-84
2023/08/30 05:00:20;;;;;;;25.40;17.45;;;;;;;18.75;76.16;98062.22;4346786;33;34583;-84
2023/08/30 05:02:47;;;;;;;22.33;16.17;;;;;;;18.46;77.29;98067.59;4348980;32;34765;-84
2023/08/30 05:05:16;;;;;;;21.48;16.23;;;;;;;18.44;76.94;98061.53;4356896;32;34643;-84
2023/08/30 05:07:43;;;;;;;22.87;16.67;;;;;;;18.81;75.00;98064.63;4347626;32;34197;-84
2023/08/30 05:10:11;;;;;;;23.40;16.70;;;;;;;18.93;74.72;98065.00;4360309;32;34794;-85
2023/08/30 05:12:38;;;;;;;22.05;16.83;;;;;;;18.68;75.72;98070.31;4358158;32;34672;-84
2023/08/30 05:15:07;;;;;;;22.40;16.45;;;;;;;18.54;76.67;98079.59;4347465;32;33806;-85
2023/08/30 05:17:34;;;;;;;20.98;16.25;;;;;;;18.56;76.25;98069.88;4359060;32;34154;-82
2023/08/30 05:20:02;;;;;;;23.90;16.20;;;;;;;18.41;74.98;98073.91;4352964;32;33616;-84
2023/08/30 05:22:30;;;;;;;23.42;16.52;;;;;;;17.99;76.18;98079.78;4351244;32;34582;-81
2023/08/30 05:24:58;;;;;;;22.08;15.65;;;;;;;18.12;77.12;98075.84;4359782;32;33732;-83
2023/08/30 05:27:25;;;;;;;22.27;15.98;;;;;;;18.34;76.09;98077.72;4359517;32;34136;-83
2023/08/30 05:29:55;;;;;;;20.33;15.15;;;;;;;18.33;76.36;98089.09;4350393;32;33842;-83
2023/08/30 05:32:23;;;;;;;20.17;15.00;;;;;;;17.95;77.48;98088.66;4332584;33;33659;-83
2023/08/30 05:34:51;;;;;;;21.58;15.02;;;;;;;18.68;75.12;98090.44;4346568;33;34827;-83
2023/08/30 05:37:19;;;;;;;20.90;15.90;;;;;;;18.69;75.75;98089.53;4347136;32;34850;-81
2023/08/30 05:39:48;;;;;;;25.92;17.30;;;;;;;18.52;76.07;98091.91;4345800;32;33843;-83
2023/08/30 05:42:15;;;;;;;22.27;17.35;;;;;;;18.19;77.43;98102.72;4342839;33;33441;-83
2023/08/30 05:44:43;;;;;;;24.10;17.52;;;;;;;18.22;77.72;98102.59;4332525;33;34027;-83
2023/08/30 05:47:14;;;;;;;23.40;16.85;;;;;;;18.56;75.83;98099.62;4346029;33;33914;-82
2023/08/30 05:49:42;;;;;;;22.52;17.15;;;;;;;17.90;78.82;98096.69;4348271;32;34130;-82
2023/08/30 05:52:10;;;;;;;23.17;16.98;;;;;;;18.22;77.35;98094.72;4346173;33;33822;-83
2023/08/30 05:54:37;;;;;;;23.98;17.20;;;;;;;18.32;76.65;98096.09;4346463;32;33984;-84
2023/08/30 05:57:05;;;;;;;22.62;18.25;;;;;;;17.65;79.56;98090.50;4345879;33;34155;-83
2023/08/30 05:59:32;;;;;;;24.45;18.52;;;;;;;17.69;79.96;98090.38;4332842;32;34956;-82
2023/08/30 06:02:00;;;;;;;23.45;17.92;;;;;;;17.99;79.00;98088.53;4346178;33;33562;-83
2023/08/30 06:04:28;;;;;;;27.95;18.52;;;;;;;18.32;76.73;98090.84;4345798;33;33819;-85
2023/08/30 06:06:55;;;;;;;22.45;17.37;;;;;;;18.18;78.66;98099.25;4346116;33;34079;-84
2023/08/30 06:09:22;;;;;;;22.02;16.92;;;;;;;18.34;76.88;98093.44;4335706;32;32788;-83
2023/08/30 06:11:50;;;;;;;19.52;15.43;;;;;;;18.33;76.14;98104.84;4352813;32;35492;-84
2023/08/30 06:14:18;;;;;;;21.80;15.98;;;;;;;18.41;74.81;98102.78;4346026;33;34093;-84
2023/08/30 06:16:45;;;;;;;19.83;15.63;;;;;;;18.41;73.96;98106.28;4345748;33;34241;-83
2023/08/30 06:19:13;;;;;;;22.15;15.90;;;;;;;18.02;77.04;98112.91;4345733;33;35818;-83
2023/08/30 06:21:40;;;;;;;20.95;15.98;;;;;;;18.14;76.67;98115.97;4346022;33;33114;-83
2023/08/30 06:24:08;;;;;;;20.08;16.15;;;;;;;17.96;77.85;98117.47;4332434;33;33410;-84
2023/08/30 06:26:35;;;;;;;21.70;16.30;;;;;;;18.34;76.70;98115.28;4346202;32;34978;-83
2023/08/30 06:29:03;;;;;;;19.05;13.90;;;;;;;18.55;76.54;98112.81;4345837;33;34129;-84
2023/08/30 06:31:32;;;;;;;19.33;14.60;;;;;;;18.71;73.79;98113.97;4345688;33;33873;-84
2023/08/30 06:34:00;;;;;;;21.48;15.13;;;;;;;18.62;74.73;98116.91;4332539;33;33519;-83
2023/08/30 06:36:29;;;;;;;18.52;14.05;;;;;;;19.01;73.57;98116.38;4332799;33;33933;-84
2023/08/30 06:38:57;;;;;;;19.65;14.70;;;;;;;19.26;72.81;98117.16;4346316;33;34114;-83
2023/08/30 06:41:25;;;;;;;23.25;15.68;;;;;;;18.79;74.36;98119.81;4345676;33;32926;-84
2023/08/30 06:43:53;;;;;;;20.60;15.32;;;;;;;18.62;74.37;98120.41;4346231;32;34168;-84
2023/08/30 06:46:21;;;;;;;22.65;16.52;;;;;;;18.82;74.68;98117.06;4345716;33;34180;-83
2023/08/30 06:48:48;;;;;;;21.12;16.50;;;;;;;18.60;75.56;98116.09;4345865;33;34115;-83
2023/08/30 06:51:16;;;;;;;21.50;16.62;;;;;;;18.76;74.60;98121.72;4320257;33;31925;-85
2023/08/30 06:53:43;;;;;;;22.90;17.75;;;;;;;18.70;75.22;98113.13;4345419;33;33552;-96
2023/08/30 06:56:11;;;;;;;22.70;16.95;;;;;;;18.91;74.82;98108.84;4335272;33;33376;-84
2023/08/30 06:58:38;;;;;;;20.05;15.95;;;;;;;18.83;74.63;98110.06;4355692;32;34109;-84
2023/08/30 07:01:06;;;;;;;21.62;16.52;;;;;;;19.12;72.54;98108.94;4358561;32;34477;-84
2023/08/30 07:03:34;;;;;;;23.00;16.87;;;;;;;19.24;71.52;98107.59;4358901;32;33659;-88
2023/08/30 07:06:01;;;;;;;22.30;15.45;;;;;;;19.10;74.10;98122.16;4359287;32;34177;-94
2023/08/30 07:08:29;;;;;;;20.33;15.32;;;;;;;19.47;71.43;98118.06;4337963;33;34581;-94
2023/08/30 07:10:57;;;;;;;22.40;16.27;;;;;;;19.19;72.72;98113.03;4332269;33;34481;-82
2023/08/30 07:13:24;;;;;;;23.17;17.17;;;;;;;18.91;74.54;98129.88;4359921;32;33909;-96
2023/08/30 07:15:51;;;;;;;22.83;16.35;;;;;;;19.02;73.56;98124.22;4360446;32;34975;-83
2023/08/30 07:18:19;;;;;;;21.77;16.15;;;;;;;19.06;74.80;98131.06;4354175;32;34989;-84
2023/08/30 07:20:47;;;;;;;20.92;16.15;;;;;;;19.05;74.34;98125.84;4345588;33;34552;-83
2023/08/30 07:23:14;;;;;;;19.52;15.02;;;;;;;18.50;74.68;98127.88;4345504;33;34202;-92
2023/08/30 07:25:42;;;;;;;21.17;16.45;;;;;;;18.88;74.58;98139.63;4345393;33;33728;-84
2023/08/30 07:28:10;;;;;;;21.30;16.10;;;;;;;19.14;73.15;98146.53;4331739;33;33147;-84
2023/08/30 07:30:38;;;;;;;21.95;15.27;;;;;;;18.92;73.33;98139.44;4332046;33;33686;-83
2023/08/30 07:33:05;;;;;;;19.75;15.30;;;;;;;18.89;72.54;98147.44;4345193;33;33814;-83
2023/08/30 07:35:33;;;;;;;18.15;14.55;;;;;;;19.14;71.08;98150.00;4345736;32;34970;-82
2023/08/30 07:38:00;;;;;;;20.02;15.35;;;;;;;19.14;71.52;98152.62;4345201;33;34829;-83
2023/08/30 07:40:28;;;;;;;17.60;13.80;;;;;;;19.27;72.59;98154.78;4345667;33;33609;-83
2023/08/30 07:42:56;;;;;;;17.83;12.98;;;;;;;19.37;70.60;98161.41;4345105;33;33704;-83
2023/08/30 07:45:26;;;;;;;20.05;14.63;;;;;;;19.54;70.57;98153.69;4345648;32;33871;-87
2023/08/30 07:47:55;;;;;;;18.50;13.48;;;;;;;19.65;70.95;98161.19;4352128;32;34088;-93
2023/08/30 07:50:22;;;;;;;19.67;14.10;;;;;;;19.26;71.98;98151.31;4373886;32;33223;-91
2023/08/30 07:52:50;;;;;;;20.15;14.68;;;;;;;19.34;72.94;98169.41;4355114;32;33518;-84
2023/08/30 07:55:18;;;;;;;17.90;14.00;;;;;;;19.06;73.24;98172.25;4364585;32;34137;-93
2023/08/30 07:57:45;;;;;;;17.02;12.57;;;;;;;19.53;71.89;98162.50;4358002;32;34850;-92
2023/08/30 08:00:13;;;;;;;19.70;14.93;;;;;;;19.40;72.11;98166.56;4346311;32;34582;-87
2023/08/30 08:02:43;;;;;;;18.27;13.98;;;;;;;19.53;72.09;98167.78;4344720;32;33846;-83
2023/08/30 08:05:10;;;;;;;19.50;14.05;;;;;;;19.20;72.52;98165.53;4344016;33;33996;-93
2023/08/30 08:07:42;;;;;;;17.50;13.07;;;;;;;19.40;72.53;98172.66;4345065;33;34148;-86
2023/08/30 08:10:10;;;;;;;20.42;14.95;;;;;;;19.20;72.88;98170.78;4355830;32;34555;-89
2023/08/30 08:12:37;;;;;;;18.25;13.25;;;;;;;19.40;72.75;98180.53;4363794;32;34529;-82
2023/08/30 08:15:05;;;;;;;18.23;13.02;;;;;;;19.57;71.94;98176.41;4360889;32;33382;-89
2023/08/30 08:17:33;;;;;;;19.45;13.32;;;;;;;19.56;70.33;98172.06;4374849;32;34255;-96
2023/08/30 08:20:01;;;;;;;18.25;13.43;;;;;;;18.92;74.25;98175.38;4374896;32;34322;-90
2023/08/30 08:22:29;;;;;;;17.27;12.95;;;;;;;18.89;74.39;98180.72;4352070;32;33977;-93
2023/08/30 08:24:57;;;;;;;20.95;13.00;;;;;;;19.34;72.17;98183.41;4373429;32;34708;-87
2023/08/30 08:27:25;;;;;;;18.60;13.62;;;;;;;19.73;71.14;98184.56;4343020;32;35238;-87
2023/08/30 08:29:53;;;;;;;17.15;12.40;;;;;;;19.57;71.27;98179.03;4332366;33;33128;-85
2023/08/30 08:32:21;;;;;;;16.40;11.68;;;;;;;19.58;70.94;98178.09;4352636;32;33428;-89
2023/08/30 08:34:48;;;;;;;14.98;11.38;;;;;;;19.74;71.00;98171.37;4345579;32;34059;-84
2023/08/30 08:37:16;;;;;;;19.52;13.98;;;;;;;19.37;71.77;98178.03;4359511;32;33992;-85
2023/08/30 08:39:46;;;;;;;14.23;12.05;;;;;;;19.50;71.51;98177.53;4357621;32;34204;-83
2023/08/30 08:42:16;;;;;;;19.02;12.77;;;;;;;19.45;71.87;98178.59;4352382;32;33726;-82
2023/08/30 08:44:46;;;;;;;16.35;12.85;;;;;;;19.55;71.35;98181.72;4344716;32;35135;-83
2023/08/30 08:47:15;;;;;;;15.07;12.13;;;;;;;19.41;71.75;98189.28;4358348;32;34521;-82
2023/08/30 08:49:42;;;;;;;15.07;11.80;;;;;;;19.99;69.55;98184.34;4339392;33;33645;-84
2023/08/30 08:52:10;;;;;;;16.67;12.23;;;;;;;19.64;70.70;98188.41;4340858;32;33717;-94
2023/08/30 08:54:59;;;;;;;15.63;12.68;;;;;;;19.90;70.05;98184.75;4359096;32;35012;-94
2023/08/30 08:57:29;;;;;;;17.45;12.37;;;;;;;20.15;67.42;98182.81;4345912;32;33638;-90
2023/08/30 08:59:57;;;;;;;16.17;13.25;;;;;;;19.98;69.42;98190.56;4345876;32;35265;-91
2023/08/30 09:02:24;;;;;;;16.92;12.52;;;;;;;20.03;67.72;98200.88;4359155;32;33758;-91
2023/08/30 09:04:52;;;;;;;19.73;14.05;;;;;;;19.41;70.72;98203.28;4345754;32;33831;-89
2023/08/30 09:07:20;;;;;;;16.70;13.48;;;;;;;19.72;69.61;98188.97;4346108;32;34167;-92
2023/08/30 09:09:49;;;;;;;18.08;13.55;;;;;;;19.96;69.65;98195.00;4345430;32;33574;-88
2023/08/30 09:12:17;;;;;;;18.37;14.18;;;;;;;19.96;68.77;98199.41;4333358;32;33164;-82
2023/08/30 09:14:54;;;;;;;16.33;12.63;;;;;;;19.85;69.11;98197.22;4345490;32;33216;-91
2023/08/30 09:17:22;;;;;;;14.40;11.57;;;;;;;19.68;70.62;98211.03;4361276;32;34756;-86
2023/08/30 09:19:50;;;;;;;15.13;11.15;;;;;;;19.80;69.49;98213.19;4361404;32;33748;-85
2023/08/30 09:22:18;;;;;;;13.32;10.73;;;;;;;19.83;69.60;98202.53;4347838;32;34081;-85
2023/08/30 09:24:45;;;;;;;12.35;9.13;;;;;;;19.96;68.53;98209.94;4347455;32;34899;-91
2023/08/30 09:27:13;;;;;;;14.27;10.15;;;;;;;19.94;67.90;98204.75;4361357;32;33878;-93
2023/08/30 09:29:43;;;;;;;13.90;9.77;;;;;;;19.80;69.75;98209.69;4347680;32;34107;-96
2023/08/30 09:32:13;;;;;;;14.32;8.93;;;;;;;20.02;69.41;98215.81;4348232;32;33814;-85
2023/08/30 09:34:46;;;;;;;12.77;9.43;;;;;;;20.33;67.65;98222.44;4335085;32;34443;-85
2023/08/30 09:37:23;;;;;;;11.38;9.10;;;;;;;19.98;68.42;98223.91;4347451;32;35025;-86
2023/08/30 09:39:51;;;;;;;10.82;7.80;;;;;;;20.23;67.36;98223.72;4360973;32;33391;-85
2023/08/30 09:42:19;;;;;;;11.93;8.13;;;;;;;20.51;65.84;98215.59;4347502;32;34560;-86
2023/08/30 09:44:47;;;;;;;12.05;9.02;;;;;;;20.40;67.36;98218.63;4347612;32;33714;-85
2023/08/30 09:47:15;;;;;;;11.85;8.55;;;;;;;20.01;68.65;98221.16;4347581;32;34908;-85
2023/08/30 09:49:45;;;;;;;12.30;8.80;;;;;;;20.28;67.73;98222.63;4347529;32;34108;-85
2023/08/30 09:52:15;;;;;;;11.10;8.55;;;;;;;19.98;68.87;98222.12;4347519;32;33619;-85
2023/08/30 09:54:43;;;;;;;12.02;8.40;;;;;;;20.26;68.54;98220.97;4347288;32;34505;-85
2023/08/30 09:57:11;;;;;;;12.75;8.00;;;;;;;20.32;68.13;98221.59;4335090;32;32824;-85
2023/08/30 09:59:39;;;;;;;10.63;8.10;;;;;;;20.45;67.58;98228.97;4347484;32;34335;-85
2023/08/30 10:02:08;;;;;;;11.40;8.23;;;;;;;20.30;67.52;98228.69;4347530;32;34889;-85
2023/08/30 10:04:40;;;;;;;9.70;7.45;;;;;;;20.29;67.67;98236.66;4347360;32;33972;-84
2023/08/30 10:07:09;;;;;;;10.35;7.87;;;;;;;20.27;68.54;98234.09;4347741;32;34013;-84
2023/08/30 10:09:38;;;;;;;10.65;7.25;;;;;;;20.54;66.51;98228.62;4347534;32;33632;-86
2023/08/30 10:12:22;;;;;;;9.73;6.95;;;;;;;20.51;67.93;98237.50;4349224;32;33487;-91
2023/08/30 10:14:49;;;;;;;10.13;7.22;;;;;;;20.58;67.49;98231.06;4347073;32;34182;-89
2023/08/30 10:17:19;;;;;;;9.65;7.03;;;;;;;20.52;67.37;98227.81;4360915;32;33997;-84
2023/08/30 10:19:47;;;;;;;10.45;7.20;;;;;;;20.51;67.63;98224.34;4347789;32;33129;-84
2023/08/30 10:22:16;;;;;;;8.88;6.20;;;;;;;20.55;67.59;98227.69;4360694;32;33737;-84
2023/08/30 10:24:51;;;;;;;9.63;6.80;;;;;;;20.94;66.10;98221.62;4360744;32;34676;-85
2023/08/30 10:27:41;;;;;;;10.00;5.97;;;;;;;20.86;65.82;98217.53;4336216;32;32705;-84
2023/08/30 10:30:11;;;;;;;8.90;6.12;;;;;;;20.94;65.51;98218.97;4346747;32;34466;-84
2023/08/30 10:32:44;;;;;;;10.90;6.32;;;;;;;20.98;65.28;98224.03;4346835;32;34981;-85
2023/08/30 10:35:17;;;;;;;9.38;5.97;;;;;;;20.52;67.56;98214.66;4345897;32;34873;-84
2023/08/30 10:37:56;;;;;;;9.25;6.87;;;;;;;21.00;66.63;98219.56;4340433;32;33975;-90
2023/08/30 10:40:24;;;;;;;11.85;6.43;;;;;;;20.87;66.60;98228.91;4347046;32;33662;-85
2023/08/30 10:43:04;;;;;;;10.65;7.10;;;;;;;21.01;66.01;98226.53;4360565;32;34747;-88
2023/08/30 10:45:32;;;;;;;10.38;7.05;;;;;;;20.97;67.44;98229.38;4360353;32;34664;-85
2023/08/30 10:48:00;;;;;;;9.90;6.82;;;;;;;21.07;66.08;98226.28;4347125;32;32740;-91
2023/08/30 10:50:30;;;;;;;11.10;6.95;;;;;;;21.31;65.18;98218.19;4347079;32;32140;-85
2023/08/30 10:52:58;;;;;;;10.15;5.93;;;;;;;21.59;65.46;98218.66;4346941;32;34693;-83
2023/08/30 10:55:26;;;;;;;10.82;6.22;;;;;;;21.95;63.09;98214.31;4347419;32;34210;-95
2023/08/30 10:58:02;;;;;;;11.98;6.05;;;;;;;21.51;65.10;98212.00;4360452;32;34124;-83
2023/08/30 11:00:31;;;;;;;9.82;7.15;;;;;;;21.81;64.35;98207.91;4347310;32;33780;-93
2023/08/30 11:02:58;;;;;;;9.15;5.68;;;;;;;21.64;64.52;98212.31;4360489;32;33978;-85
2023/08/30 11:05:27;;;;;;;7.82;5.12;;;;;;;21.71;64.05;98211.94;4360293;32;33823;-86
2023/08/30 11:07:55;;;;;;;8.00;4.85;;;;;;;21.55;64.21;98214.44;4360452;32;35170;-84
2023/08/30 11:10:23;;;;;;;8.32;4.40;;;;;;;21.87;62.99;98202.34;4360620;32;34104;-83
2023/08/30 11:12:51;;;;;;;9.02;5.07;;;;;;;21.98;62.93;98208.91;4360330;32;34585;-83
2023/08/30 11:15:20;;;;;;;9.38;4.78;;;;;;;21.52;64.79;98217.22;4360814;32;34049;-92
2023/08/30 11:17:48;;;;;;;7.35;4.70;;;;;;;21.21;65.02;98224.78;4360690;32;34163;-84
2023/08/30 11:20:19;;;;;;;7.05;3.92;;;;;;;21.25;64.96;98211.44;4360239;32;33721;-84
2023/08/30 11:22:48;;;;;;;6.78;4.07;;;;;;;21.58;65.07;98211.66;4360712;32;33649;-84
2023/08/30 11:25:17;;;;;;;7.18;4.00;;;;;;;21.94;61.77;98204.72;4360337;32;33436;-86
2023/08/30 11:27:45;;;;;;;8.00;4.35;;;;;;;21.92;61.47;98209.19;4346745;32;33764;-83